Time;durP1;ratioP1;P1;durP2;ratioP2;P2;SDS_P1;SDS_P2;PMS_P1;PMS_P2;Temp;Humidity;BMP_temperature;BMP_pressure;BME280_temperature;BME280_humidity;BME280_pressure;Samples;Min_cycle;Max_cycle;Signal;HPM_P1;HPM_P2
2022/07/24 00:01:22;;;;;;;;;38.33;34.67;;;;;31.71;26.28;99131.28;5029483;28;9032;-76
2022/07/24 00:03:50;;;;;;;;;37.50;33.00;;;;;31.72;26.27;99124.88;5029729;28;8955;-76
2022/07/24 00:06:19;;;;;;;;;42.00;37.00;;;;;31.66;26.17;99119.09;5029427;28;8875;-76
2022/07/24 00:08:48;;;;;;;;;37.75;32.50;;;;;31.67;27.17;99123.50;5029089;28;9017;-76
2022/07/24 00:11:17;;;;;;;;;37.00;33.67;;;;;31.52;28.01;99151.91;5027931;28;9041;-77
2022/07/24 00:13:45;;;;;;;;;46.67;40.00;;;;;31.00;30.18;99164.81;5029013;28;9209;-78
2022/07/24 00:16:15;;;;;;;;;48.33;40.00;;;;;30.61;31.24;99173.66;5028319;28;9819;-76
2022/07/24 00:18:44;;;;;;;;;47.75;40.25;;;;;30.25;32.32;99172.38;5028553;28;9640;-76
2022/07/24 00:21:12;;;;;;;;;53.25;44.75;;;;;30.04;33.71;99181.34;5029654;28;9499;-76
2022/07/24 00:23:42;;;;;;;;;52.25;43.50;;;;;29.92;34.27;99175.22;5028185;28;9715;-76
2022/07/24 00:26:12;;;;;;;;;56.25;46.75;;;;;29.42;35.17;99169.63;5029925;28;9944;-76
2022/07/24 00:28:41;;;;;;;;;55.75;45.50;;;;;29.33;34.15;99173.94;5030513;28;10049;-73
2022/07/24 00:31:10;;;;;;;;;54.75;45.50;;;;;29.18;34.87;99163.66;5027996;28;9888;-77
2022/07/24 00:33:40;;;;;;;;;55.25;46.00;;;;;29.49;34.52;99165.44;5029424;28;9616;-75
2022/07/24 00:36:09;;;;;;;;;52.50;44.00;;;;;29.63;34.20;99175.00;5028734;28;9599;-76
2022/07/24 00:38:39;;;;;;;;;53.25;44.25;;;;;29.48;34.13;99170.94;5028926;28;10273;-75
2022/07/24 00:41:07;;;;;;;;;49.75;42.25;;;;;29.70;33.40;99173.50;5010933;28;9674;-75
2022/07/24 00:43:56;;;;;;;;;54.75;45.00;;;;;29.51;34.02;99168.84;5029619;28;9644;-75
2022/07/24 00:46:24;;;;;;;;;53.25;45.25;;;;;29.68;33.79;99164.72;5029443;28;9889;-77
2022/07/24 00:48:55;;;;;;;;;52.00;44.00;;;;;29.71;33.46;99169.81;5028195;28;9619;-73
2022/07/24 00:51:24;;;;;;;;;56.50;47.00;;;;;29.50;33.97;99169.81;5028905;28;9841;-75
2022/07/24 00:53:53;;;;;;;;;52.50;43.75;;;;;29.75;33.66;99173.13;5028761;28;9790;-75
2022/07/24 00:56:22;;;;;;;;;52.75;44.25;;;;;29.85;33.65;99170.47;5028641;28;9741;-76
2022/07/24 00:58:50;;;;;;;;;55.50;45.50;;;;;29.97;33.12;99174.81;5028809;28;9557;-75
2022/07/24 01:01:19;;;;;;;;;53.75;45.00;;;;;30.00;32.64;99173.69;5027316;28;9621;-75
2022/07/24 01:03:48;;;;;;;;;56.50;46.75;;;;;29.85;33.37;99171.34;5027039;28;9627;-75
2022/07/24 01:06:19;;;;;;;;;55.75;46.25;;;;;29.71;33.24;99174.34;5028444;28;10065;-75
2022/07/24 01:08:48;;;;;;;;;52.25;44.25;;;;;29.63;33.44;99175.00;5009899;28;10002;-75
2022/07/24 01:11:16;;;;;;;;;52.33;44.33;;;;;29.42;33.99;99177.69;5028388;28;9849;-76
2022/07/24 01:13:45;;;;;;;;;53.75;44.50;;;;;29.42;34.09;99180.38;5042822;28;9347;-76
2022/07/24 01:16:14;;;;;;;;;51.25;43.50;;;;;29.28;34.30;99172.63;5026848;28;9580;-76
2022/07/24 01:18:43;;;;;;;;;50.33;43.33;;;;;29.48;33.98;99176.31;5027213;28;9563;-77
2022/07/24 01:21:12;;;;;;;;;46.00;39.67;;;;;29.64;33.70;99159.72;5028595;28;9418;-77
2022/07/24 01:23:41;;;;;;;;;51.00;43.67;;;;;29.78;33.70;99172.88;5028609;28;9073;-77
2022/07/24 01:26:10;;;;;;;;;45.67;39.33;;;;;29.86;33.45;99174.88;5028226;28;9191;-78
2022/07/24 01:28:38;;;;;;;;;46.67;39.33;;;;;29.89;33.73;99175.47;5028498;28;9078;-76
2022/07/24 01:31:08;;;;;;;;;42.67;36.67;;;;;29.89;33.40;99177.31;5028175;28;9097;-76
2022/07/24 01:33:36;;;;;;;;;44.33;38.33;;;;;29.93;33.46;99168.84;4994381;28;9040;-77
2022/07/24 01:36:05;;;;;;;;;49.33;42.00;;;;;29.98;33.62;99171.16;5039274;28;8946;-76
2022/07/24 01:38:35;;;;;;;;;46.33;39.67;;;;;30.04;33.46;99175.09;5047354;28;9221;-75
2022/07/24 01:41:04;;;;;;;;;47.00;40.00;;;;;30.09;33.56;99170.19;5044483;28;9194;-77
2022/07/24 01:43:32;;;;;;;;;47.67;41.33;;;;;30.12;33.25;99170.78;5050062;28;9028;-76
2022/07/24 01:46:01;;;;;;;;;47.00;38.67;;;;;30.10;33.62;99163.84;5013502;28;9070;-76
2022/07/24 01:48:30;;;;;;;;;49.00;40.33;;;;;30.12;33.33;99168.09;5026747;28;9026;-75
2022/07/24 01:50:59;;;;;;;;;43.25;37.00;;;;;30.14;33.43;99173.34;5027516;28;8968;-77
2022/07/24 01:53:28;;;;;;;;;43.00;37.75;;;;;30.14;33.42;99170.63;5027499;28;9005;-76
2022/07/24 01:55:58;;;;;;;;;45.00;37.67;;;;;30.14;33.53;99165.25;5027759;28;8844;-76
2022/07/24 01:58:26;;;;;;;;;45.00;38.67;;;;;30.14;33.38;99170.63;5027877;28;8929;-76
2022/07/24 02:00:56;;;;;;;;;45.00;39.00;;;;;30.15;33.63;99168.78;5027604;28;8939;-76
2022/07/24 02:03:24;;;;;;;;;44.25;37.50;;;;;30.15;33.04;99174.16;5027736;28;9991;-76
2022/07/24 02:05:53;;;;;;;;;41.00;36.50;;;;;30.14;33.05;99154.50;5027821;28;8882;-77
2022/07/24 02:08:21;;;;;;;;;45.00;38.25;;;;;30.15;33.19;99155.34;5025971;28;8860;-76
2022/07/24 02:10:50;;;;;;;;;42.50;36.25;;;;;30.15;33.22;99160.72;5027615;28;8851;-77
2022/07/24 02:13:20;;;;;;;;;46.25;39.25;;;;;30.14;33.50;99159.88;5027423;28;8881;-78
2022/07/24 02:15:48;;;;;;;;;42.00;37.00;;;;;30.12;33.34;99157.31;5027635;28;8921;-77
2022/07/24 02:18:17;;;;;;;;;45.00;36.75;;;;;30.08;33.18;99153.22;5027992;28;8848;-76
2022/07/24 02:20:45;;;;;;;;;39.50;35.25;;;;;30.06;33.30;99151.66;5028604;28;8871;-77
2022/07/24 02:23:17;;;;;;;;;39.75;35.50;;;;;30.02;33.50;99151.06;5032269;28;9061;-75
2022/07/24 02:25:46;;;;;;;;;42.75;36.50;;;;;30.01;33.54;99164.63;5032629;28;9013;-79
2022/07/24 02:28:15;;;;;;;;;43.50;37.25;;;;;29.98;33.62;99165.78;5031082;28;8869;-75
2022/07/24 02:30:46;;;;;;;;;42.00;36.75;;;;;29.96;33.48;99166.88;5014055;28;8864;-76
2022/07/24 02:33:14;;;;;;;;;42.25;36.75;;;;;29.86;33.53;99166.81;5031286;28;8867;-75
2022/07/24 02:35:43;;;;;;;;;35.50;32.75;;;;;29.83;33.73;99178.72;5032032;28;8851;-76
2022/07/24 02:38:11;;;;;;;;;39.00;35.00;;;;;29.38;34.48;99180.75;5030624;28;8852;-76
2022/07/24 02:40:40;;;;;;;;;39.25;35.25;;;;;28.96;35.47;99195.81;5031365;28;8875;-76
2022/07/24 02:43:09;;;;;;;;;41.50;36.25;;;;;28.36;36.97;99264.16;5031839;28;8891;-76
2022/07/24 02:45:38;;;;;;;;;34.00;32.50;;;;;27.92;38.42;99303.31;5031574;28;8870;-76
2022/07/24 02:48:08;;;;;;;;;40.75;35.00;;;;;28.02;38.48;99231.09;5031905;28;8902;-77
2022/07/24 02:50:38;;;;;;;;;34.50;32.25;;;;;28.23;38.00;99271.47;5032137;28;9714;-77
2022/07/24 02:53:07;;;;;;;;;33.50;32.00;;;;;28.01;38.64;99278.47;5031403;28;8855;-76
2022/07/24 02:55:35;;;;;;;;;32.25;30.75;;;;;28.16;38.28;99247.78;5030725;28;8863;-76
2022/07/24 02:58:04;;;;;;;;;28.50;28.25;;;;;28.28;37.98;99261.22;5031362;28;8854;-76
2022/07/24 03:00:33;;;;;;;;;30.75;30.00;;;;;28.24;38.31;99283.88;5030938;28;8880;-77
2022/07/24 03:03:02;;;;;;;;;34.75;31.25;;;;;28.26;38.45;99280.13;5031104;28;9033;-76
2022/07/24 03:05:33;;;;;;;;;30.00;29.75;;;;;28.13;38.80;99274.00;5031012;28;8951;-76
2022/07/24 03:08:01;;;;;;;;;33.25;31.25;;;;;28.13;39.08;99263.28;5030807;28;9771;-76
2022/07/24 03:10:29;;;;;;;;;35.00;32.50;;;;;28.07;39.55;99251.22;5030853;28;8855;-75
2022/07/24 03:12:59;;;;;;;;;37.25;32.75;;;;;28.13;39.60;99264.13;5031429;28;8887;-75
2022/07/24 03:15:27;;;;;;;;;35.00;32.50;;;;;28.10;39.66;99258.16;5031043;28;8860;-76
2022/07/24 03:17:57;;;;;;;;;36.00;32.75;;;;;28.19;39.50;99242.19;5030709;28;8889;-74
2022/07/24 03:20:28;;;;;;;;;33.50;32.00;;;;;28.23;39.83;99266.94;5030097;28;8980;-76
2022/07/24 03:22:58;;;;;;;;;34.00;31.00;;;;;28.16;39.99;99266.56;5030301;28;9001;-75
2022/07/24 03:25:27;;;;;;;;;36.75;31.75;;;;;28.21;39.75;99266.22;5030172;28;8863;-77
2022/07/24 03:27:55;;;;;;;;;35.00;32.00;;;;;28.16;40.09;99273.75;5030352;28;8901;-77
2022/07/24 03:30:24;;;;;;;;;36.75;32.00;;;;;28.00;40.15;99287.50;5029962;28;8969;-76
2022/07/24 03:32:52;;;;;;;;;34.00;31.75;;;;;28.08;40.30;99290.44;5029978;28;8898;-76
2022/07/24 03:35:21;;;;;;;;;28.75;27.25;;;;;27.99;40.51;99283.94;5030245;28;8906;-76
2022/07/24 03:37:50;;;;;;;;;33.25;32.00;;;;;28.09;40.24;99281.44;5029778;28;8856;-75
2022/07/24 03:40:20;;;;;;;;;34.75;32.25;;;;;28.13;40.34;99287.41;5028786;28;8852;-76
2022/07/24 03:42:48;;;;;;;;;35.00;32.25;;;;;28.07;40.56;99295.91;5030000;28;8956;-77
2022/07/24 03:45:16;;;;;;;;;32.25;29.75;;;;;28.14;40.46;99299.84;5029750;28;8885;-76
2022/07/24 03:47:45;;;;;;;;;36.50;32.00;;;;;28.12;40.23;99291.91;5030007;28;8863;-76
2022/07/24 03:50:14;;;;;;;;;36.00;32.25;;;;;28.21;40.20;99289.50;5012207;28;8859;-75
2022/07/24 03:52:50;;;;;;;;;38.25;32.25;;;;;28.30;40.13;99295.00;5029957;28;8898;-75
2022/07/24 03:55:21;;;;;;;;;70.25;59.25;;;;;28.42;39.88;99300.38;5011062;28;8852;-76
2022/07/24 03:57:49;;;;;;;;;35.50;32.75;;;;;28.53;39.76;99293.22;5028340;28;10692;-75
2022/07/24 04:00:18;;;;;;;;;32.25;30.50;;;;;28.61;39.34;99286.38;5028380;28;8932;-76
2022/07/24 04:02:46;;;;;;;;;32.75;31.00;;;;;28.64;39.29;99283.44;5028364;28;8871;-77
2022/07/24 04:05:15;;;;;;;;;32.25;30.75;;;;;28.70;39.19;99293.72;5028216;28;8863;-77
2022/07/24 04:07:43;;;;;;;;;31.50;30.25;;;;;28.65;39.50;99302.09;5029257;28;8847;-76
2022/07/24 04:10:12;;;;;;;;;32.75;31.25;;;;;28.73;39.42;99301.50;5029055;28;8867;-77
2022/07/24 04:12:42;;;;;;;;;34.25;32.00;;;;;28.80;39.30;99305.41;5029347;28;8879;-77
2022/07/24 04:15:11;;;;;;;;;32.75;31.75;;;;;28.96;38.84;99302.31;5028928;28;8860;-78
2022/07/24 04:17:40;;;;;;;;;31.75;31.00;;;;;29.04;38.69;99316.00;5011754;28;8855;-76
2022/07/24 04:20:10;;;;;;;;;33.75;30.50;;;;;29.01;38.67;99315.38;5029504;28;8851;-77
2022/07/24 04:22:39;;;;;;;;;30.50;28.75;;;;;28.68;39.50;99323.34;5011337;28;8859;-76
2022/07/24 04:25:13;;;;;;;;;28.50;27.75;;;;;28.82;39.48;99311.50;5029332;28;8851;-75
2022/07/24 04:27:44;;;;;;;;;32.50;29.50;;;;;28.92;39.31;99311.59;5029139;28;9708;-77
2022/07/24 04:30:13;;;;;;;;;28.50;27.75;;;;;29.09;38.70;99315.59;4997325;28;9779;-76
2022/07/24 04:32:42;;;;;;;;;31.75;30.25;;;;;29.25;38.47;99315.25;5029706;28;8922;-75
2022/07/24 04:35:11;;;;;;;;;31.25;29.25;;;;;29.34;38.40;99325.25;5028285;28;9630;-76
2022/07/24 04:37:39;;;;;;;;;28.25;27.75;;;;;29.43;38.12;99323.63;5028665;28;8870;-76
2022/07/24 04:40:09;;;;;;;;;38.00;33.00;;;;;29.45;38.17;99325.22;5029760;28;8879;-76
2022/07/24 04:42:38;;;;;;;;;32.25;29.50;;;;;29.53;38.39;99316.53;4994976;28;8929;-77
2022/07/24 04:45:09;;;;;;;;;30.00;29.75;;;;;29.61;38.38;99327.47;5027004;28;8851;-76
2022/07/24 04:47:38;;;;;;;;;28.25;27.75;;;;;29.68;38.21;99326.00;5029151;28;8867;-77
2022/07/24 04:50:08;;;;;;;;;31.25;28.00;;;;;29.72;38.31;99324.75;5029157;28;8851;-77
2022/07/24 04:52:37;;;;;;;;;28.50;26.25;;;;;29.81;38.26;99331.22;5029184;28;8874;-75
2022/07/24 04:55:06;;;;;;;;;31.25;28.75;;;;;29.78;38.31;99333.31;5027684;28;8938;-76
2022/07/24 04:57:35;;;;;;;;;25.25;25.25;;;;;29.83;38.17;99331.94;5028666;28;8879;-76
2022/07/24 05:00:07;;;;;;;;;28.00;27.50;;;;;29.77;38.33;99340.50;5027270;28;8871;-77
2022/07/24 05:02:37;;;;;;;;;32.50;30.00;;;;;29.70;38.35;99347.38;4994980;28;8898;-76
2022/07/24 05:05:06;;;;;;;;;27.25;26.25;;;;;29.70;38.10;99355.44;5028968;28;8990;-75
2022/07/24 05:07:35;;;;;;;;;31.00;29.00;;;;;29.23;38.93;99355.66;5027504;28;8930;-77
2022/07/24 05:10:04;;;;;;;;;35.25;32.50;;;;;28.48;41.22;99373.16;5027405;28;8879;-75
2022/07/24 05:12:33;;;;;;;;;31.75;30.25;;;;;27.68;43.20;99386.41;5046334;28;8996;-76
2022/07/24 05:15:02;;;;;;;;;34.75;31.25;;;;;27.52;43.78;99387.50;5048507;28;8934;-75
2022/07/24 05:17:31;;;;;;;;;30.25;29.75;;;;;27.44;44.11;99392.56;5048312;28;8956;-76
2022/07/24 05:20:01;;;;;;;;;33.75;31.50;;;;;27.24;44.05;99377.94;5048178;28;9618;-76
2022/07/24 05:22:29;;;;;;;;;30.75;29.25;;;;;27.21;44.56;99388.88;5046793;28;8881;-76
2022/07/24 05:24:58;;;;;;;;;28.00;27.50;;;;;27.02;45.15;99376.78;5045785;28;8865;-76
2022/07/24 05:27:27;;;;;;;;;33.75;30.75;;;;;27.12;44.80;99376.97;5028943;28;8857;-77
2022/07/24 05:29:55;;;;;;;;;32.25;31.00;;;;;27.34;44.66;99386.19;5062208;28;8900;-76
2022/07/24 05:32:24;;;;;;;;;28.75;27.25;;;;;27.46;44.86;99382.59;5048084;28;8860;-77
2022/07/24 05:34:52;;;;;;;;;30.50;29.75;;;;;27.87;43.67;99389.41;5048209;28;8887;-76
2022/07/24 05:37:22;;;;;;;;;31.25;29.75;;;;;27.72;44.00;99382.50;5047514;28;8987;-75
2022/07/24 05:39:51;;;;;;;;;29.75;29.75;;;;;27.92;43.04;99378.34;5047783;28;8869;-76
2022/07/24 05:42:25;;;;;;;;;30.00;29.00;;;;;28.24;42.48;99391.16;5032459;28;8871;-76
2022/07/24 05:44:55;;;;;;;;;29.50;28.75;;;;;28.05;43.72;99395.22;5027759;28;8886;-75
2022/07/24 05:47:24;;;;;;;;;39.00;33.00;;;;;27.93;44.29;99396.16;5027592;28;9002;-76
2022/07/24 05:49:52;;;;;;;;;35.25;32.50;;;;;27.90;44.66;99397.25;5028109;28;8863;-75
2022/07/24 05:52:22;;;;;;;;;34.50;31.25;;;;;27.83;45.00;99387.94;5028063;28;8856;-76
2022/07/24 05:54:51;;;;;;;;;34.00;31.25;;;;;28.04;44.03;99390.00;5028652;28;8905;-75
2022/07/24 05:57:19;;;;;;;;;27.50;27.00;;;;;28.02;43.25;99394.63;5013152;28;8867;-75
2022/07/24 05:59:48;;;;;;;;;30.75;30.00;;;;;27.91;43.95;99393.59;4996722;28;8894;-75
2022/07/24 06:02:17;;;;;;;;;32.25;30.75;;;;;27.84;44.56;99410.22;5014149;28;8958;-75
2022/07/24 06:04:45;;;;;;;;;31.50;30.75;;;;;28.04;44.22;99398.91;5030601;28;8871;-76
2022/07/24 06:07:14;;;;;;;;;36.75;33.50;;;;;28.10;44.21;99405.63;5031786;28;8843;-75
2022/07/24 06:09:44;;;;;;;;;35.25;32.75;;;;;28.08;44.02;99399.53;5031654;28;8860;-76
2022/07/24 06:12:12;;;;;;;;;36.00;32.75;;;;;27.98;44.37;99413.63;5031442;28;8977;-76
2022/07/24 06:14:43;;;;;;;;;33.50;31.25;;;;;27.84;45.06;99416.41;5031334;28;8867;-75
2022/07/24 06:17:12;;;;;;;;;31.50;30.50;;;;;28.04;44.82;99417.66;5031514;28;8971;-76
2022/07/24 06:19:41;;;;;;;;;34.00;32.75;;;;;27.88;44.80;99412.53;5031534;28;8882;-75
2022/07/24 06:22:09;;;;;;;;;36.75;32.75;;;;;28.03;44.60;99420.44;5031940;28;8882;-75
2022/07/24 06:24:38;;;;;;;;;35.00;31.75;;;;;27.97;44.98;99424.44;5031942;28;8859;-76
2022/07/24 06:27:08;;;;;;;;;35.00;32.75;;;;;27.87;45.30;99424.25;5046494;28;8884;-75
2022/07/24 06:29:40;;;;;;;;;37.75;33.25;;;;;27.89;45.58;99424.16;5006081;28;8855;-75
2022/07/24 06:32:09;;;;;;;;;44.75;36.00;;;;;27.61;46.59;99427.00;5043895;28;8863;-76
2022/07/24 06:34:37;;;;;;;;;33.75;30.50;;;;;27.62;46.04;99422.53;5051974;28;8883;-75
2022/07/24 06:37:06;;;;;;;;;35.50;32.50;;;;;27.60;46.28;99428.00;5040002;28;8856;-74
2022/07/24 06:39:34;;;;;;;;;37.50;33.25;;;;;27.49;46.70;99427.94;5034043;28;8867;-78
2022/07/24 06:42:03;;;;;;;;;33.00;31.75;;;;;27.35;47.64;99422.69;5014145;28;8984;-74
2022/07/24 06:44:36;;;;;;;;;37.50;34.00;;;;;27.59;46.79;99423.59;5031333;28;8871;-76
2022/07/24 06:47:04;;;;;;;;;36.50;32.50;;;;;27.48;47.19;99438.75;5032201;28;8859;-75
2022/07/24 06:49:33;;;;;;;;;36.75;32.00;;;;;27.31;47.57;99432.78;5031565;28;8859;-77
2022/07/24 06:52:01;;;;;;;;;35.50;31.50;;;;;27.49;47.81;99441.31;5029499;28;8867;-75
2022/07/24 06:54:30;;;;;;;;;31.00;30.50;;;;;27.22;47.67;99431.59;5030525;28;8871;-75
2022/07/24 06:56:59;;;;;;;;;25.50;22.50;;;;;27.23;47.95;99432.44;5029446;28;8855;-75
2022/07/24 06:59:27;;;;;;;;;38.25;32.00;;;;;27.27;48.70;99435.78;5029141;28;9033;-74
2022/07/24 07:01:57;;;;;;;;;29.50;29.50;;;;;27.52;48.23;99432.19;5030225;28;8875;-75
2022/07/24 07:04:26;;;;;;;;;32.00;30.00;;;;;27.63;47.46;99434.94;5030572;28;8882;-75
2022/07/24 07:06:55;;;;;;;;;27.00;26.50;;;;;27.68;47.10;99438.16;5029220;28;9121;-76
2022/07/24 07:09:23;;;;;;;;;35.00;30.50;;;;;27.60;47.36;99432.50;5030934;28;8867;-76
2022/07/24 07:11:52;;;;;;;;;30.50;29.50;;;;;27.65;46.80;99432.16;5030746;28;8859;-75
2022/07/24 07:14:21;;;;;;;;;25.50;24.75;;;;;27.64;46.68;99438.47;5029410;28;9022;-77
2022/07/24 07:16:49;;;;;;;;;18.75;17.50;;;;;27.64;46.88;99444.72;5030286;28;8867;-74
2022/07/24 07:19:19;;;;;;;;;27.50;25.25;;;;;27.55;47.40;99446.22;5029169;28;8966;-74
2022/07/24 07:21:48;;;;;;;;;21.50;19.75;;;;;27.70;46.77;99448.75;5029930;28;8860;-74
2022/07/24 07:24:17;;;;;;;;;25.50;24.00;;;;;27.86;46.59;99446.66;5028822;28;8898;-75
2022/07/24 07:26:46;;;;;;;;;25.75;23.50;;;;;27.63;46.71;99460.88;5028823;28;8871;-75
2022/07/24 07:29:14;;;;;;;;;24.00;23.00;;;;;27.87;46.36;99445.69;5028703;28;8868;-75
2022/07/24 07:31:43;;;;;;;;;30.75;28.25;;;;;27.87;46.21;99463.59;5030161;28;8860;-75
2022/07/24 07:34:11;;;;;;;;;22.25;22.25;;;;;27.90;46.43;99458.03;5028633;28;8870;-74
2022/07/24 07:36:41;;;;;;;;;27.75;26.75;;;;;28.19;45.89;99456.72;5029785;28;8863;-74
2022/07/24 07:39:10;;;;;;;;;20.50;19.25;;;;;27.94;45.66;99440.75;5036042;28;8910;-79
2022/07/24 07:41:38;;;;;;;;;24.00;23.50;;;;;27.91;45.49;99449.03;5049687;28;8837;-75
2022/07/24 07:44:07;;;;;;;;;23.00;22.75;;;;;28.05;45.27;99450.69;5048843;28;9008;-74
2022/07/24 07:46:36;;;;;;;;;22.00;21.00;;;;;28.22;45.21;99446.72;5048339;28;8868;-75
2022/07/24 07:49:08;;;;;;;;;23.25;20.25;;;;;28.11;44.72;99455.56;5049701;28;9014;-75
2022/07/24 07:51:37;;;;;;;;;25.75;23.25;;;;;28.36;43.48;99458.13;5049488;28;8880;-75
2022/07/24 07:54:10;;;;;;;;;25.00;24.00;;;;;28.28;44.08;99467.72;5048978;28;8942;-75
2022/07/24 07:56:40;;;;;;;;;23.00;20.75;;;;;28.28;43.63;99475.75;5049146;28;8844;-74
2022/07/24 07:59:08;;;;;;;;;29.25;28.50;;;;;28.25;44.96;99463.44;5049471;28;8968;-75
2022/07/24 08:01:38;;;;;;;;;27.25;26.00;;;;;28.46;45.49;99468.16;5049608;28;8845;-75
2022/07/24 08:04:06;;;;;;;;;28.25;24.50;;;;;28.58;45.67;99472.59;5049510;28;8872;-75
2022/07/24 08:06:35;;;;;;;;;28.00;26.50;;;;;28.61;45.82;99464.31;5036668;28;8872;-75
2022/07/24 08:09:04;;;;;;;;;28.75;25.50;;;;;28.67;44.55;99468.38;5029605;28;8878;-77
2022/07/24 08:11:34;;;;;;;;;27.50;25.50;;;;;28.72;45.06;99464.34;5030763;28;8864;-76
2022/07/24 08:14:03;;;;;;;;;29.00;29.00;;;;;29.00;43.99;99464.91;5029123;28;8949;-75
2022/07/24 08:16:32;;;;;;;;;26.00;23.25;;;;;29.02;43.18;99473.69;5029262;28;8852;-75
2022/07/24 08:19:00;;;;;;;;;20.50;20.50;;;;;29.01;43.66;99461.22;5028088;28;8863;-75
2022/07/24 08:21:29;;;;;;;;;23.25;21.75;;;;;29.10;43.58;99465.03;4978563;28;9018;-75
2022/07/24 08:23:58;;;;;;;;;25.50;25.50;;;;;29.02;43.57;99472.81;5010425;28;8908;-74
2022/07/24 08:26:30;;;;;;;;;20.75;20.75;;;;;29.10;43.91;99471.25;5028952;28;8869;-76
2022/07/24 08:29:00;;;;;;;;;21.25;20.00;;;;;28.84;44.09;99457.19;5029293;28;8871;-75
2022/07/24 08:31:30;;;;;;;;;22.75;21.25;;;;;28.80;43.11;99468.28;5028842;28;8864;-76
2022/07/24 08:33:58;;;;;;;;;22.25;20.25;;;;;29.03;42.92;99466.47;5009969;28;8933;-77
2022/07/24 08:36:27;;;;;;;;;18.75;18.00;;;;;28.84;42.19;99470.59;5028987;28;8855;-76
2022/07/24 08:38:56;;;;;;;;;19.75;19.75;;;;;28.95;42.74;99459.88;5027381;28;8877;-75
2022/07/24 08:41:35;;;;;;;;;21.50;20.00;;;;;29.13;42.31;99472.84;5122884;27;13480;-75
2022/07/24 08:44:04;;;;;;;;;22.25;21.25;;;;;29.20;42.08;99463.34;5099595;28;8861;-76
2022/07/24 08:46:33;;;;;;;;;19.25;19.00;;;;;29.32;42.06;99470.44;5085378;28;8842;-75
2022/07/24 08:49:08;;;;;;;;;20.00;20.00;;;;;29.59;40.77;99457.59;5065919;28;8858;-76
2022/07/24 08:51:39;;;;;;;;;21.75;21.50;;;;;29.52;41.37;99459.91;5084883;28;8955;-75
2022/07/24 08:54:08;;;;;;;;;21.50;19.50;;;;;29.38;41.69;99462.84;5084971;28;8826;-75
2022/07/24 08:56:41;;;;;;;;;22.75;21.75;;;;;29.55;40.86;99452.44;5065864;28;8884;-75
2022/07/24 08:59:18;;;;;;;;;19.25;19.00;;;;;29.69;41.21;99470.13;5084785;28;8866;-75
2022/07/24 09:01:53;;;;;;;;;17.50;16.75;;;;;29.98;40.26;99468.75;5085008;28;8870;-75
2022/07/24 09:04:41;;;;;;;;;20.00;20.00;;;;;29.62;41.42;99477.00;5083174;28;8835;-75
2022/07/24 09:07:11;;;;;;;;;17.75;17.25;;;;;29.66;41.02;99472.22;5083744;28;8939;-75
2022/07/24 09:09:41;;;;;;;;;17.00;16.25;;;;;29.60;41.52;99481.63;5085061;28;9581;-76
2022/07/24 09:12:14;;;;;;;;;20.75;19.75;;;;;29.51;42.27;99471.66;5117768;28;8880;-76
2022/07/24 09:14:44;;;;;;;;;17.50;16.75;;;;;29.63;43.04;99467.94;5049365;28;8834;-74
2022/07/24 09:17:16;;;;;;;;;19.00;19.00;;;;;29.72;42.60;99469.06;5084818;28;8960;-75
2022/07/24 09:19:52;;;;;;;;;21.00;19.00;;;;;29.57;42.98;99473.00;5048856;28;8947;-74
2022/07/24 09:22:27;;;;;;;;;19.50;19.50;;;;;29.73;43.46;99474.31;5084494;28;9020;-76
2022/07/24 09:25:08;;;;;;;;;20.75;20.25;;;;;29.73;43.64;99482.38;5084645;28;8854;-74
2022/07/24 09:27:40;;;;;;;;;21.25;19.25;;;;;29.95;42.89;99479.78;5084264;28;8838;-75
2022/07/24 09:30:10;;;;;;;;;19.00;17.00;;;;;30.27;42.12;99494.09;5116776;28;8850;-75
2022/07/24 09:32:42;;;;;;;;;18.75;17.25;;;;;30.51;40.79;99499.28;5082944;28;8974;-74
2022/07/24 09:35:15;;;;;;;;;17.75;17.75;;;;;29.89;41.41;99489.22;5082292;28;8862;-77
2022/07/24 09:37:54;;;;;;;;;18.75;18.50;;;;;30.28;41.03;99484.19;5048758;28;8961;-76
2022/07/24 09:40:29;;;;;;;;;21.25;18.50;;;;;30.55;40.71;99485.56;5084018;28;8875;-74
2022/07/24 09:45:58;;;;;;;;;21.33;21.00;;;;;31.02;39.15;99492.28;5141619;27;1346436;-73
2022/07/24 09:48:30;;;;;;;;;20.00;15.25;;;;;31.27;38.77;99487.44;5168249;27;9065;-75
2022/07/24 09:51:00;;;;;;;;;16.25;16.25;;;;;31.39;37.41;99496.28;5168002;27;8955;-76
2022/07/24 09:53:30;;;;;;;;;16.50;16.00;;;;;31.04;38.36;99500.22;5167638;27;8839;-76
2022/07/24 09:56:01;;;;;;;;;19.00;16.25;;;;;31.29;37.73;99498.94;5167973;27;8835;-75
2022/07/24 09:58:31;;;;;;;;;15.75;15.75;;;;;31.00;38.52;99491.56;5167939;27;8831;-76
2022/07/24 10:01:01;;;;;;;;;17.75;17.50;;;;;31.21;38.33;99499.63;5168328;27;8850;-77
2022/07/24 10:03:32;;;;;;;;;18.75;18.75;;;;;31.32;37.85;99493.28;5148710;27;10128;-75
2022/07/24 10:06:02;;;;;;;;;21.50;20.75;;;;;31.49;38.11;99502.59;5168119;27;9713;-75
2022/07/24 10:08:32;;;;;;;;;22.00;20.50;;;;;30.77;40.67;99490.81;5144725;27;8849;-77
2022/07/24 10:11:01;;;;;;;;;19.00;17.25;;;;;30.92;39.88;99499.44;5093672;27;8845;-75
2022/07/24 10:13:30;;;;;;;;;19.50;18.50;;;;;30.76;40.82;99493.66;5076990;27;8845;-75
2022/07/24 10:16:23;;;;;;;;;23.25;22.25;;;;;30.57;40.82;99488.97;5146405;27;8868;-76
2022/07/24 10:18:54;;;;;;;;;21.50;21.00;;;;;30.93;40.21;99502.97;5128243;27;8845;-75
2022/07/24 10:21:24;;;;;;;;;20.00;20.00;;;;;30.61;40.29;99493.97;5146852;27;8826;-75
2022/07/24 10:24:12;;;;;;;;;18.25;18.25;;;;;30.67;40.94;99492.59;5146666;27;9598;-76
2022/07/24 10:26:43;;;;;;;;;20.50;20.25;;;;;30.73;40.27;99499.28;5076890;27;10091;-76
2022/07/24 10:29:13;;;;;;;;;21.00;21.00;;;;;30.61;41.23;99496.66;5095015;27;8829;-76
2022/07/24 10:31:45;;;;;;;;;21.50;19.75;;;;;30.99;40.52;99499.78;5146516;27;8826;-77
2022/07/24 10:34:25;;;;;;;;;25.00;22.50;;;;;31.28;39.11;99495.38;5146116;27;8822;-76
2022/07/24 10:37:08;;;;;;;;;24.25;23.25;;;;;31.11;39.76;99506.78;5146102;27;8838;-77
2022/07/24 10:39:48;;;;;;;;;23.00;22.75;;;;;31.31;39.54;99491.56;5102469;28;8853;-76
2022/07/24 10:42:17;;;;;;;;;17.25;17.25;;;;;31.06;40.20;99495.56;5103470;28;9004;-80
2022/07/24 10:45:06;;;;;;;;;20.50;20.50;;;;;31.44;39.45;99494.06;5102886;28;8873;-77
2022/07/24 10:47:36;;;;;;;;;20.00;20.00;;;;;31.70;39.00;99496.28;5102454;28;8853;-77
2022/07/24 10:50:05;;;;;;;;;21.50;21.50;;;;;31.61;39.04;99500.66;5085257;28;8902;-77
2022/07/24 10:52:36;;;;;;;;;23.00;22.00;;;;;32.00;38.22;99495.34;5051987;28;8841;-76
2022/07/24 10:55:26;;;;;;;;;18.00;18.00;;;;;32.39;38.36;99496.28;5100387;28;9026;-77
2022/07/24 10:58:12;;;;;;;;;22.75;19.75;;;;;32.33;37.68;99498.69;5071179;28;8849;-77
2022/07/24 11:00:44;;;;;;;;;22.00;21.00;;;;;32.31;37.73;99504.22;5067327;28;9666;-76
2022/07/24 11:03:21;;;;;;;;;20.00;18.00;;;;;31.98;38.13;99494.63;5067890;28;8836;-75
2022/07/24 11:06:05;;;;;;;;;22.25;22.25;;;;;31.81;38.24;99496.16;5067615;28;8832;-76
2022/07/24 11:08:38;;;;;;;;;20.75;18.50;;;;;32.04;37.72;99488.72;5050584;28;8959;-76
2022/07/24 11:11:16;;;;;;;;;20.50;19.25;;;;;31.96;37.97;99499.31;5106196;27;8946;-77
2022/07/24 11:13:52;;;;;;;;;17.75;17.00;;;;;32.34;37.46;99487.72;5131201;27;8850;-75
2022/07/24 11:16:23;;;;;;;;;14.25;14.25;;;;;32.64;36.62;99486.75;5112543;27;8850;-75
2022/07/24 11:19:31;;;;;;;;;18.50;17.75;;;;;32.45;36.26;99500.25;5131058;27;8830;-76
2022/07/24 11:22:08;;;;;;;;;21.25;21.25;;;;;31.95;36.78;99506.56;5120075;27;8890;-75
2022/07/24 11:24:41;;;;;;;;;16.75;16.75;;;;;31.57;37.62;99494.69;5143913;27;8845;-74
2022/07/24 11:27:18;;;;;;;;;20.00;18.75;;;;;31.50;37.99;99495.38;5123661;27;8837;-76
2022/07/24 11:29:46;;;;;;;;;21.25;20.25;;;;;31.56;37.82;99498.38;5144503;27;8868;-73
2022/07/24 11:32:18;;;;;;;;;18.00;18.00;;;;;31.76;36.94;99493.91;5139045;27;8875;-78
2022/07/24 11:34:50;;;;;;;;;20.00;18.75;;;;;32.02;36.79;99493.41;5135670;27;8857;-76
2022/07/24 11:37:19;;;;;;;;;17.00;17.00;;;;;32.41;36.15;99488.03;5132897;27;8846;-76
2022/07/24 11:39:49;;;;;;;;;21.50;21.00;;;;;32.27;36.28;99475.81;5113954;27;8864;-75
2022/07/24 11:42:18;;;;;;;;;17.25;16.00;;;;;32.67;34.97;99479.34;5131460;27;8967;-75